UNR Ag. Experiment Farm, Sparks, Nevada Weather observations

Data are for 10 minute period ending at time listed.
 Day   Time   Solar   Ave.   Ave.  Ave.  Vector  Max.   Baro.   Total    
  of    of     Rad.   Air    Rel.  Wind   Wind   Wind  Press.  Precip.   
Year   Day            Temp.  Hum.  Speed  Dir.   Gust                    
2014   (PST)  Kw/m2    F      %     mph   deg.    mph    mb.     in.     
-------------------------------------------------------------------------
 245    0:00   0.00   56.6    59    0.7    75     3.1   863.9    0.00 
 245    0:10   0.00   56.2    63    0.5   147     1.7   863.8    0.00 
 245    0:20   0.00   54.2    68    1.2    74     2.3   863.8    0.00 
 245    0:30   0.00   53.0    70    0.8    63     1.4   863.9    0.00 
 245    0:40   0.00   54.5    65    0.7    82     1.8   863.9    0.00 
 245    0:50   0.00   53.4    70    0.3   209     3.6   863.9    0.00 
 245    1:00   0.00   52.1    71    1.3   180     2.6   863.9    0.00 
 245    1:10   0.00   52.6    68    2.0   162     3.1   863.9    0.00 
 245    1:20   0.00   52.3    64    2.4   172     3.7   863.9    0.00 
 245    1:30   0.00   51.0    66    1.8   177     3.9   863.8    0.00 
 245    1:40   0.00   51.1    68    0.7   177     1.5   863.8    0.00 
 245    1:50   0.00   52.1    66    1.6   146     2.4   863.9    0.00 
 245    2:00   0.00   51.9    67    1.4   140     2.6   864.0    0.00 
 245    2:10   0.00   51.3    66    0.5   144     1.6   864.0    0.00 
 245    2:20   0.00   51.2    70    0.7   244     1.6   864.0    0.00 
 245    2:30   0.00   51.4    70    0.5   242     1.0   864.0    0.00 
 245    2:40   0.00   52.3    67    0.1   313     0.7   864.0    0.00 
 245    2:50   0.00   52.2    66    0.6   297     2.3   864.0    0.00 
 245    3:00   0.00   51.6    70    0.4   210     0.9   864.0    0.00 
 245    3:10   0.00   51.5    68    0.2   210     0.9   863.8    0.00 
 245    3:20   0.00   49.5    73    0.4   210     1.2   863.8    0.00 
 245    3:30   0.00   50.0    75    0.5   210     1.5   863.8    0.00 
 245    3:40   0.00   49.6    76    0.0     0     0.0   863.8    0.00 
 245    3:50   0.00   49.2    78    0.3   210     1.2   863.8    0.00 
 245    4:00   0.00   49.4    78    0.0     0     0.0   863.8    0.00 
 245    4:10   0.00   49.5    78    0.4   279     1.2   863.8    0.00 
 245    4:20   0.00   48.0    80    1.1   193     2.0   863.8    0.00 
 245    4:30   0.00   47.8    82    1.1   190     1.5   863.9    0.00 
 245    4:40   0.00   48.1    79    0.9   189     1.5   863.9    0.00 
 245    4:50   0.00   48.5    76    0.3   189     0.8   864.0    0.00 
 245    5:00   0.00   47.6    79    0.4   315     2.4   864.1    0.00 
 245    5:10   0.00   47.2    82    0.3   306     2.6   864.1    0.00 
 245    5:20   0.00   47.2    84    0.6   293     1.6   864.2    0.00 
 245    5:30   0.00   47.8    84    0.4   293     1.5   864.2    0.00 
 245    5:40   0.01   47.1    83    0.6    83     1.5   864.3    0.00 
 245    5:50   0.01   46.9    84    0.0    92     0.6   864.4    0.00 
 245    6:00   0.01   47.6    82    0.4    92     1.0   864.5    0.00 
 245    6:10   0.06   48.2    82    0.4    92     1.1   864.5    0.00 
 245    6:20   0.08   48.2    83    0.0     0     0.0   864.6    0.00 
 245    6:30   0.11   50.0    84    0.2    92     0.9   864.6    0.00 
 245    6:40   0.14   53.2    79    0.0     0     0.0   864.6    0.00 
 245    6:50   0.16   54.8    73    1.1   280     1.7   864.5    0.00 
 245    7:00   0.19   56.2    74    0.4   242     1.4   864.5    0.00 
 245    7:10   0.22   59.5    58    1.0   178     1.9   864.5    0.00 
 245    7:20   0.25   63.3    45    0.1   217     1.3   864.4    0.00 
 245    7:30   0.28   66.5    41    0.9   112     2.5   864.4    0.00 
 245    7:40   0.32   65.7    42    1.4   107     2.5   864.4    0.00 
 245    7:50   0.35   66.1    42    1.1    58     2.4   864.5    0.00 
 245    8:00   0.38   65.7    44    0.8   334     1.9   864.5    0.00 
 245    8:10   0.41   65.9    46    0.9    18     1.9   864.5    0.00 
 245    8:20   0.44   67.2    43    1.1    18     2.4   864.6    0.00 
 245    8:30   0.47   68.4    42    1.2    35     2.6   864.6    0.00 
 245    8:40   0.49   68.7    43    1.4   354     2.6   864.5    0.00 
 245    8:50   0.52   69.4    42    0.9   335     2.4   864.5    0.00 
 245    9:00   0.55   70.4    38    1.5   317     2.9   864.6    0.00 
 245    9:10   0.57   71.2    38    1.4   332     2.8   864.6    0.00 
 245    9:20   0.60   72.6    35    1.9    44     3.0   864.5    0.00 
 245    9:30   0.63   73.5    33    1.9     7     3.4   864.3    0.00 
 245    9:40   0.65   73.6    32    1.2   334     3.2   864.3    0.00 
 245    9:50   0.67   74.4    31    1.3   355     3.1   864.2    0.00 
 245   10:00   0.69   75.7    29    1.1   353     2.9   864.2    0.00 
 245   10:10   0.71   77.0    28    0.8   349     2.2   864.1    0.00 
 245   10:20   0.73   77.8    28    1.0   350     2.8   864.0    0.00 
 245   10:30   0.75   77.9    30    1.7     7     2.9   863.9    0.00 
 245   10:40   0.77   79.2    26    1.4     5     2.9   863.8    0.00 
 245   10:50   0.78   80.0    26    1.5    21     3.9   863.7    0.00 
 245   11:00   0.79   81.5    26    1.1   333     2.7   863.6    0.00 
 245   11:10   0.81   81.9    24    1.1   294     3.1   863.5    0.00 
 245   11:20   0.81   83.1    22    0.8    15     2.7   863.4    0.00 
 245   11:30   0.82   84.2    20    1.4    18     4.9   863.3    0.00 
 245   11:40   0.83   85.0    19    3.0    78     6.2   863.1    0.00 
 245   11:50   0.83   85.1    21    3.2    48     5.1   863.0    0.00 
 245   12:00   0.83   84.8    21    2.9     9     4.9   862.9    0.00 
 245   12:10   0.84   84.8    21    3.2     7     6.8   862.7    0.00 
 245   12:20   0.84   86.3    20    2.5    59     5.2   862.6    0.00 
 245   12:30   0.84   87.5    16    2.8    96     6.6   862.4    0.00 
 245   12:40   0.84   88.2    15    3.9   125     8.1   862.2    0.00 
 245   12:50   0.83   88.2    15    4.7    98     9.0   862.0    0.00 
 245   13:00   0.83   88.6    16    2.8    89     6.1   861.9    0.00 
 245   13:10   0.82   89.5    16    2.5    90     6.1   861.7    0.00 
 245   13:20   0.81   89.8    16    5.3   156    13.7   861.5    0.00 
 245   13:30   0.80   90.6    14    3.9   174     9.2   861.4    0.00 
 245   13:40   0.79   89.6    16    7.9   258    18.6   861.2    0.00 
 245   13:50   0.77   87.4    18   10.7   284    19.1   861.1    0.00 
 245   14:00   0.76   86.4    20   12.9   294    19.6   860.9    0.00 
 245   14:10   0.74   86.3    18   14.8   289    21.5   860.7    0.00 
 245   14:20   0.72   86.2    19   13.9   291    19.6   860.6    0.00 
 245   14:30   0.70   86.3    19   13.8   290    19.3   860.6    0.00 
 245   14:40   0.68   86.4    18   13.5   287    18.7   860.6    0.00 
 245   14:50   0.66   86.4    18   13.3   284    19.9   860.6    0.00 
 245   15:00   0.64   86.1    18   13.6   282    19.0   860.5    0.00 
 245   15:10   0.61   86.3    17   13.8   286    20.8   860.4    0.00 
 245   15:20   0.59   85.8    17   14.0   284    20.0   860.4    0.00 
 245   15:30   0.56   86.1    17   14.1   280    19.8   860.4    0.00 
 245   15:40   0.54   86.1    16   13.8   274    19.9   860.4    0.00 
 245   15:50   0.51   85.6    17   14.2   284    20.1   860.3    0.00 
 245   16:00   0.48   85.2    17   14.3   282    20.5   860.4    0.00 
 245   16:10   0.45   84.9    18   13.2   286    19.2   860.4    0.00 
 245   16:20   0.42   84.6    16   16.5   282    23.5   860.4    0.00 
 245   16:30   0.39   84.6    16   16.4   280    24.5   860.4    0.00 
 245   16:40   0.36   83.8    18   15.0   284    20.9   860.4    0.00 
 245   16:50   0.33   83.4    17   15.7   285    22.9   860.4    0.00 
 245   17:00   0.29   83.4    17   15.4   277    23.3   860.4    0.00 
 245   17:10   0.26   83.3    17   14.6   277    21.1   860.4    0.00 
 245   17:20   0.23   83.2    17   14.0   275    19.6   860.4    0.00 
 245   17:30   0.20   83.0    16   14.1   274    21.7   860.5    0.00 
 245   17:40   0.17   82.1    17   12.6   277    19.4   860.5    0.00 
 245   17:50   0.14   82.0    17   10.1   270    15.7   860.5    0.00 
 245   18:00   0.10   81.7    18   11.6   271    21.5   860.6    0.00 
 245   18:10   0.07   81.3    18   11.7   269    18.3   860.7    0.00 
 245   18:20   0.04   80.6    19   10.9   271    16.6   860.8    0.00 
 245   18:30   0.01   78.1    21    9.4   280    15.1   860.8    0.00 
 245   18:40   0.00   78.5    21   11.7   285    17.4   860.9    0.00 
 245   18:50   0.00   78.1    21   12.0   291    19.4   860.9    0.00 
 245   19:00   0.00   77.6    22   11.8   289    17.2   860.9    0.00 
 245   19:10   0.00   77.6    22   12.9   292    20.3   860.9    0.00 
 245   19:20   0.00   77.3    22   11.1   291    17.9   861.1    0.00 
 245   19:30   0.00   76.4    23   10.2   293    16.2   861.2    0.00 
 245   19:40   0.00   76.5    23   11.5   294    17.0   861.2    0.00 
 245   19:50   0.00   76.0    24   11.1   289    18.3   861.3    0.00 
 245   20:00   0.00   75.2    24    7.7   296    14.2   861.4    0.00 
 245   20:10   0.00   73.9    26    8.3   298    14.8   861.5    0.00 
 245   20:20   0.00   72.2    28    4.2   298     7.3   861.6    0.00 
 245   20:30   0.00   71.3    29    2.6   127     6.4   861.6    0.00 
 245   20:40   0.00   73.9    25    2.1    87     5.0   861.6    0.00 
 245   20:50   0.00   73.3    26    2.4    54     3.2   861.6    0.00 
 245   21:00   0.00   71.2    29    4.6   338     9.0   861.6    0.00 
 245   21:10   0.00   69.4    32    7.4   312    11.2   861.5    0.00 
 245   21:20   0.00   71.1    29    8.3   300    14.3   861.4    0.00 
 245   21:30   0.00   70.6    30    6.5   298    13.3   861.5    0.00 
 245   21:40   0.00   70.1    31    6.3   287    10.2   861.6    0.00 
 245   21:50   0.00   69.3    32    2.5   224     5.1   861.7    0.00 
 245   22:00   0.00   66.8    36    2.9    95     5.3   861.8    0.00 
 245   22:10   0.00   64.3    40    3.7    39     4.8   861.7    0.00 
 245   22:20   0.00   70.8    28    4.4   302     9.3   861.6    0.00 
 245   22:30   0.00   72.6    26    2.3   249     5.3   861.6    0.00 
 245   22:40   0.00   69.2    31    2.9   206     5.5   861.6    0.00 
 245   22:50   0.00   66.8    34    1.4    64     3.2   861.7    0.00 
 245   23:00   0.00   64.9    39    3.0   105     5.5   861.6    0.00 
 245   23:10   0.00   63.0    41    3.9    72    11.2   861.5    0.00 
 245   23:20   0.00   65.4    36    3.6    25     8.0   861.6    0.00 
 245   23:30   0.00   66.1    32    5.6    61     9.3   861.6    0.00 
 245   23:40   0.00   63.9    38    1.9   298     5.9   861.6    0.00 
 245   23:50   0.00   65.6    33    2.3   201     5.1   861.4    0.00 

Return to Sparks, Nevada, UNR Ag Experiment Farm graphs page.


Western Regional Climate Center,wrcc@dri.edu